Terminal Aerodrome Forecast
Issued by NWS

Home | Current Version | Previous Version | Text Only | Print | Product List | Glossary On
Versions: 1 2 3 4 5 6 7 8 9 10 11 12 13 14 15 16 17 18 19 20 21 22 23 24 25 26
000
FTUS42 KCAE 311000 AAB
TAFCUB
TAF AMD
KCUB 311012Z 3110/0106 VRB03KT P6SM SCT008 BKN070
      TEMPO 3111/3113 BKN008
     FM311400 VRB04KT P6SM SCT015 BKN035
     FM311600 19005KT P6SM SCT030 BKN040
     FM311800 18006KT P6SM SCT045 BKN150=

USA.gov is the U.S. government's official web portal to all federal, state and local government web resources and services.